Time;durP1;ratioP1;P1;durP2;ratioP2;P2;SDS_P1;SDS_P2;PMS_P1;PMS_P2;Temp;Humidity;BMP_temperature;BMP_pressure;BME280_temperature;BME280_humidity;BME280_pressure;Samples;Min_cycle;Max_cycle;Signal;HPM_P1;HPM_P2
2021/11/10 00:02:07;;;;;;;10.40;6.17;;;2.50;99.90;1.70;101746.00;;;;4935643;28;97984;-66
2021/11/10 00:04:33;;;;;;;8.40;4.93;;;2.00;99.90;1.60;101752.00;;;;4936223;28;87784;-65
2021/11/10 00:06:59;;;;;;;8.63;4.97;;;2.00;99.90;1.60;101749.00;;;;4935625;28;88934;-66
2021/11/10 00:09:25;;;;;;;4.10;3.70;;;1.90;99.90;1.50;101744.00;;;;4935098;28;118142;-66
2021/11/10 00:11:53;;;;;;;4.93;4.23;;;1.90;99.90;1.50;101739.00;;;;4936233;28;88114;-66
2021/11/10 00:14:18;;;;;;;4.33;3.90;;;2.60;99.90;1.50;101743.00;;;;4936050;28;87514;-66
2021/11/10 00:16:44;;;;;;;6.63;4.77;;;1.80;99.90;1.40;101734.00;;;;4935595;28;88088;-66
2021/11/10 00:19:10;;;;;;;5.57;4.23;;;1.70;99.90;1.40;101729.00;;;;4936374;28;88671;-66
2021/11/10 00:21:36;;;;;;;6.47;5.00;;;1.70;99.90;1.40;101728.00;;;;4934287;28;115654;-65
2021/11/10 00:24:02;;;;;;;9.30;5.73;;;1.70;99.90;1.30;101731.00;;;;4933416;28;87339;-65
2021/11/10 00:26:28;;;;;;;7.23;5.07;;;2.20;99.90;1.30;101722.00;;;;4939718;28;87982;-64
2021/11/10 00:28:54;;;;;;;9.23;4.90;;;1.60;99.90;1.20;101723.00;;;;4936659;28;118387;-65
2021/11/10 00:31:20;;;;;;;6.90;4.63;;;1.50;99.90;1.20;101728.00;;;;4937442;28;117847;-64
2021/11/10 00:33:46;;;;;;;4.60;4.03;;;1.50;99.90;1.20;101726.00;;;;4939214;28;87897;-64
2021/11/10 00:36:14;;;;;;;9.53;5.80;;;1.50;99.90;1.10;101730.00;;;;4939399;28;87793;-64
2021/11/10 00:38:39;;;;;;;5.67;4.77;;;1.50;99.90;1.10;101717.00;;;;4939296;28;89409;-65
2021/11/10 00:41:05;;;;;;;8.30;4.80;;;1.50;99.90;1.10;101729.00;;;;4938143;28;116930;-66
2021/11/10 00:43:32;;;;;;;9.50;4.73;;;1.40;99.90;1.10;101719.00;;;;4951949;28;107592;-65
2021/11/10 00:45:58;;;;;;;11.07;4.60;;;1.50;99.90;1.10;101715.00;;;;4940055;28;87706;-66
2021/11/10 00:48:24;;;;;;;5.20;3.97;;;1.30;99.90;1.10;101722.00;;;;4937854;28;116623;-66
2021/11/10 00:50:50;;;;;;;9.10;5.07;;;1.40;99.90;1.00;101720.00;;;;4938263;28;116980;-67
2021/11/10 00:53:16;;;;;;;8.60;5.53;;;1.30;99.90;1.00;101727.00;;;;4938477;28;87930;-65
2021/11/10 00:55:43;;;;;;;6.53;4.93;;;1.30;99.90;1.00;101705.00;;;;4938583;28;88531;-66
2021/11/10 00:58:10;;;;;;;9.13;5.47;;;1.60;99.90;0.90;101703.00;;;;4938445;28;88469;-66
2021/11/10 01:00:37;;;;;;;12.53;7.10;;;1.30;99.90;0.90;101686.00;;;;4938878;28;88653;-66
2021/11/10 01:03:04;;;;;;;8.10;5.67;;;1.40;99.90;0.90;101699.00;;;;4952318;28;100313;-65
2021/11/10 01:05:32;;;;;;;8.40;5.80;;;1.20;99.90;0.80;101701.00;;;;4938981;28;87937;-65
2021/11/10 01:07:58;;;;;;;11.03;5.97;;;1.10;99.90;0.80;101695.00;;;;4938370;28;88621;-64
2021/11/10 01:10:24;;;;;;;6.10;5.40;;;1.20;99.90;0.80;101692.00;;;;4938328;28;110290;-66
2021/11/10 01:12:50;;;;;;;9.33;5.30;;;1.10;99.90;0.70;101690.00;;;;4938753;28;95888;-66
2021/11/10 01:15:18;;;;;;;7.10;5.33;;;1.00;99.90;0.70;101693.00;;;;4938385;28;87790;-65
2021/11/10 01:17:44;;;;;;;10.80;7.00;;;1.00;99.90;0.70;101681.00;;;;4938266;28;88788;-65
2021/11/10 01:20:12;;;;;;;8.90;6.10;;;1.40;99.90;0.70;101683.00;;;;4937372;28;116653;-65
2021/11/10 01:22:38;;;;;;;12.53;5.47;;;1.00;99.90;0.70;101685.00;;;;4952632;28;87814;-66
2021/11/10 01:25:09;;;;;;;8.87;5.13;;;1.00;99.90;0.60;101674.00;;;;4952428;28;107572;-64
2021/11/10 01:27:34;;;;;;;6.93;4.67;;;1.00;99.90;0.60;101676.00;;;;4937499;28;107603;-65
2021/11/10 01:30:01;;;;;;;6.40;5.57;;;1.40;99.90;0.60;101681.00;;;;4937238;28;116025;-65
2021/11/10 01:32:26;;;;;;;8.77;5.20;;;0.90;99.90;0.60;101674.00;;;;4937847;28;96158;-65
2021/11/10 01:34:52;;;;;;;7.73;4.60;;;0.90;99.90;0.60;101665.00;;;;4937630;28;94780;-65
2021/11/10 01:37:19;;;;;;;9.17;5.63;;;0.80;99.90;0.50;101671.00;;;;4937222;28;115588;-65
2021/11/10 01:39:45;;;;;;;7.13;5.77;;;0.90;99.90;0.50;101677.00;;;;4938055;28;88317;-65
2021/11/10 01:42:10;;;;;;;7.83;5.73;;;0.90;99.90;0.50;101674.00;;;;4937306;28;99511;-65
2021/11/10 01:44:39;;;;;;;9.03;6.07;;;0.80;99.90;0.40;101668.00;;;;4937782;28;88580;-65
2021/11/10 01:47:09;;;;;;;6.57;5.27;;;0.90;99.90;0.40;101660.00;;;;4937081;28;105245;-65
2021/11/10 01:49:39;;;;;;;7.07;5.27;;;1.00;99.90;0.40;101671.00;;;;4937459;28;106505;-65
2021/11/10 01:52:06;;;;;;;6.47;4.57;;;0.70;99.90;0.40;101674.00;;;;4937879;28;98935;-65
2021/11/10 01:54:34;;;;;;;7.63;5.33;;;0.70;99.90;0.40;101665.00;;;;4937284;28;87792;-66
2021/11/10 01:57:02;;;;;;;8.37;4.97;;;0.70;99.90;0.40;101657.00;;;;4937378;28;107827;-64
2021/11/10 01:59:36;;;;;;;5.70;3.63;;;0.70;99.90;0.40;101659.00;;;;4937454;28;88707;-66
2021/11/10 02:02:19;;;;;;;7.17;4.73;;;0.70;99.90;0.40;101650.00;;;;4938067;28;99671;-65
2021/11/10 02:04:47;;;;;;;6.83;4.40;;;0.70;99.90;0.30;101649.00;;;;4936250;28;87707;-65
2021/11/10 02:07:14;;;;;;;7.40;5.43;;;0.70;99.90;0.30;101640.00;;;;4937303;28;88789;-65
2021/11/10 02:09:43;;;;;;;6.67;5.07;;;0.60;99.90;0.30;101631.00;;;;4937781;28;88826;-65
2021/11/10 02:12:11;;;;;;;10.67;5.63;;;0.60;99.90;0.20;101636.00;;;;4937526;28;87771;-65
2021/11/10 02:14:39;;;;;;;11.03;4.90;;;0.60;99.90;0.20;101629.00;;;;4937966;28;88686;-65
2021/11/10 02:17:07;;;;;;;7.00;4.60;;;0.50;99.90;0.20;101628.00;;;;4937025;28;107915;-66
2021/11/10 02:19:34;;;;;;;7.53;4.87;;;0.50;99.90;0.20;101633.00;;;;4937366;28;88732;-65
2021/11/10 02:22:01;;;;;;;5.40;4.87;;;0.50;99.90;0.20;101637.00;;;;4937856;28;87879;-66
2021/11/10 02:24:31;;;;;;;9.13;4.70;;;0.50;99.90;0.10;101640.00;;;;4937681;28;88156;-66
2021/11/10 02:26:58;;;;;;;7.23;5.00;;;0.50;99.90;0.10;101627.00;;;;4936586;28;88142;-66
2021/11/10 02:29:29;;;;;;;6.67;4.90;;;0.50;99.90;0.00;101621.00;;;;4936537;28;100244;-66
2021/11/10 02:31:56;;;;;;;8.20;6.27;;;0.40;99.90;0.00;101628.00;;;;4936731;28;98416;-66
2021/11/10 02:34:21;;;;;;;6.77;4.50;;;0.40;99.90;-0.10;101628.00;;;;4936304;28;99649;-66
2021/11/10 02:36:48;;;;;;;5.50;4.47;;;0.20;99.90;-0.20;101618.00;;;;4936967;28;107544;-66
2021/11/10 02:39:22;;;;;;;6.27;4.77;;;0.10;99.90;-0.20;101614.00;;;;4936268;28;108302;-66
2021/11/10 02:41:47;;;;;;;6.80;4.53;;;0.20;99.90;-0.30;101615.00;;;;4934905;28;88161;-66
2021/11/10 02:44:19;;;;;;;5.37;3.53;;;0.10;99.90;-0.30;101607.00;;;;4951664;28;87706;-66
2021/11/10 02:46:48;;;;;;;4.53;3.70;;;0.00;99.90;-0.30;101602.00;;;;4951576;28;88011;-66
2021/11/10 02:49:14;;;;;;;6.37;4.10;;;0.10;99.90;-0.30;101601.00;;;;4936747;28;87881;-66
2021/11/10 02:52:09;;;;;;;5.47;4.57;;;0.10;99.90;-0.30;101603.00;;;;4936664;28;99601;-66
2021/11/10 02:54:45;;;;;;;4.30;3.60;;;0.10;99.90;-0.20;101597.00;;;;4936811;28;95982;-66
2021/11/10 02:57:11;;;;;;;9.67;5.87;;;0.10;99.90;-0.20;101600.00;;;;4936621;28;87994;-66
2021/11/10 02:59:37;;;;;;;6.47;4.73;;;0.20;99.90;-0.30;101588.00;;;;4934454;28;89070;-66
2021/11/10 03:02:04;;;;;;;5.50;4.93;;;0.10;99.90;-0.30;101584.00;;;;4936488;28;87989;-65
2021/11/10 03:04:45;;;;;;;5.60;4.33;;;0.10;99.90;-0.30;101577.00;;;;4937098;28;87671;-66
2021/11/10 03:07:14;;;;;;;5.70;4.30;;;0.10;99.90;-0.30;101575.00;;;;4951262;28;88219;-66
2021/11/10 03:09:41;;;;;;;8.20;5.07;;;0.00;99.90;-0.40;101575.00;;;;4936732;28;88378;-66
2021/11/10 03:12:08;;;;;;;6.87;4.73;;;0.10;99.90;-0.30;101572.00;;;;4936806;28;87833;-65
2021/11/10 03:14:36;;;;;;;9.27;5.33;;;0.00;99.90;-0.30;101566.00;;;;4937660;28;87746;-65
2021/11/10 03:17:12;;;;;;;5.47;4.40;;;0.70;99.90;-0.40;101572.00;;;;4936660;28;99630;-65
2021/11/10 03:19:39;;;;;;;5.13;4.67;;;0.10;99.90;-0.40;101564.00;;;;4936178;28;99176;-66
2021/11/10 03:22:07;;;;;;;12.83;5.50;;;0.00;99.90;-0.40;101568.00;;;;4937055;28;88159;-66
2021/11/10 03:24:34;;;;;;;8.07;4.90;;;0.00;99.90;-0.40;101561.00;;;;4936270;28;88769;-67
2021/11/10 03:27:01;;;;;;;6.23;4.93;;;0.00;99.90;-0.40;101562.00;;;;4934801;28;90321;-65
2021/11/10 03:29:26;;;;;;;5.73;4.53;;;-0.10;99.90;-0.40;101564.00;;;;4936457;28;93193;-65
2021/11/10 03:31:53;;;;;;;7.13;4.80;;;-0.10;99.90;-0.40;101566.00;;;;4935396;28;111496;-65
2021/11/10 03:34:20;;;;;;;7.33;4.33;;;-0.10;99.90;-0.40;101557.00;;;;4936386;28;87926;-65
2021/11/10 03:36:47;;;;;;;4.17;3.33;;;-0.10;99.90;-0.50;101556.00;;;;4936299;28;88830;-66
2021/11/10 03:39:15;;;;;;;5.93;5.03;;;-0.20;99.90;-0.50;101567.00;;;;4936128;28;94414;-65
2021/11/10 03:41:41;;;;;;;5.87;4.67;;;-0.10;99.90;-0.50;101550.00;;;;4936869;28;87117;-66
2021/11/10 03:44:08;;;;;;;8.00;5.07;;;-0.20;99.90;-0.40;101548.00;;;;4936536;28;87725;-65
2021/11/10 03:46:42;;;;;;;7.07;3.80;;;0.00;99.90;-0.50;101540.00;;;;4936103;28;91862;-65
2021/11/10 03:49:08;;;;;;;5.90;4.57;;;0.00;99.90;-0.40;101546.00;;;;4949918;28;88842;-65
2021/11/10 03:51:35;;;;;;;3.93;3.40;;;-0.10;99.90;-0.50;101546.00;;;;4934018;28;88225;-65
2021/11/10 03:54:01;;;;;;;8.03;5.00;;;-0.10;99.90;-0.50;101552.00;;;;4936129;28;96812;-65
2021/11/10 03:56:26;;;;;;;5.77;4.30;;;-0.10;99.90;-0.40;101545.00;;;;4935155;28;87837;-65
2021/11/10 03:58:53;;;;;;;8.03;5.53;;;-0.10;99.90;-0.50;101535.00;;;;4935595;28;117812;-65
2021/11/10 04:01:19;;;;;;;7.23;5.53;;;-0.10;99.90;-0.50;101540.00;;;;4936607;28;87574;-65
2021/11/10 04:03:44;;;;;;;5.20;4.67;;;-0.10;99.90;-0.50;101540.00;;;;4935200;28;87745;-66
2021/11/10 04:06:11;;;;;;;7.10;4.83;;;-0.10;99.90;-0.60;101542.00;;;;4935835;28;97907;-64
2021/11/10 04:08:37;;;;;;;11.60;4.67;;;-0.10;99.90;-0.60;101550.00;;;;4935477;28;87958;-66
2021/11/10 04:11:04;;;;;;;4.80;4.13;;;-0.20;99.90;-0.60;101545.00;;;;4950986;28;91312;-65
2021/11/10 04:13:31;;;;;;;5.97;5.10;;;1.00;99.90;-0.60;101555.00;;;;4936258;28;88739;-65
2021/11/10 04:15:58;;;;;;;7.43;4.87;;;-0.30;99.90;-0.60;101554.00;;;;4935907;28;88149;-66
2021/11/10 04:18:23;;;;;;;4.60;4.03;;;-0.30;99.90;-0.60;101565.00;;;;4934061;28;89326;-65
2021/11/10 04:20:49;;;;;;;6.07;4.43;;;-0.30;99.90;-0.60;101576.00;;;;4935364;28;87822;-65
2021/11/10 04:23:15;;;;;;;7.03;4.63;;;-0.30;99.90;-0.60;101567.00;;;;4935113;28;108025;-64
2021/11/10 04:25:41;;;;;;;5.67;4.20;;;-0.20;99.90;-0.50;101562.00;;;;4934515;28;117889;-65
2021/11/10 04:28:07;;;;;;;6.00;4.40;;;-0.30;99.90;-0.50;101563.00;;;;4935340;28;112041;-64
2021/11/10 04:30:33;;;;;;;9.27;4.30;;;-0.20;99.90;-0.40;101563.00;;;;4935851;28;100438;-64
2021/11/10 04:32:59;;;;;;;6.93;5.13;;;-0.10;99.90;-0.40;101547.00;;;;4935925;28;87864;-64
2021/11/10 04:35:25;;;;;;;7.13;5.10;;;0.00;99.90;-0.40;101545.00;;;;4934885;28;116200;-64
2021/11/10 04:37:51;;;;;;;7.03;5.47;;;-0.10;99.90;-0.40;101549.00;;;;4934893;28;88494;-65
2021/11/10 04:40:17;;;;;;;6.50;5.43;;;-0.10;99.90;-0.50;101540.00;;;;4935064;28;109068;-64
2021/11/10 04:42:43;;;;;;;6.07;4.40;;;-0.10;99.90;-0.50;101540.00;;;;4936224;28;88227;-65
2021/11/10 04:45:16;;;;;;;7.57;5.07;;;-0.20;99.90;-0.50;101539.00;;;;4935460;28;88461;-64
2021/11/10 04:47:41;;;;;;;5.77;4.30;;;-0.10;99.90;-0.50;101547.00;;;;4933549;28;89490;-65
2021/11/10 04:50:09;;;;;;;7.47;3.80;;;-0.20;99.90;-0.60;101541.00;;;;4934931;28;109669;-64
2021/11/10 04:52:36;;;;;;;7.77;4.73;;;-0.20;99.90;-0.50;101532.00;;;;4936015;28;87940;-65
2021/11/10 04:55:06;;;;;;;5.17;4.47;;;-0.20;99.90;-0.50;101536.00;;;;4935542;28;88187;-65
2021/11/10 04:57:31;;;;;;;8.63;5.03;;;-1.70;99.90;-0.50;101529.00;;;;4941799;28;87751;-64
2021/11/10 04:59:57;;;;;;;5.20;4.67;;;-0.20;99.90;-0.60;101526.00;;;;4934939;28;110328;-65
2021/11/10 05:02:23;;;;;;;6.30;4.33;;;-0.20;99.90;-0.60;101542.00;;;;4933996;28;108766;-64
2021/11/10 05:04:50;;;;;;;6.17;5.37;;;-0.20;99.90;-0.60;101533.00;;;;4935049;28;88758;-65
2021/11/10 05:07:15;;;;;;;13.30;4.77;;;-0.30;99.90;-0.70;101519.00;;;;4935331;28;87841;-63
2021/11/10 05:09:41;;;;;;;6.80;5.40;;;-0.40;99.90;-0.70;101524.00;;;;4934257;28;111497;-64
2021/11/10 05:12:07;;;;;;;6.13;4.57;;;-0.30;99.90;-0.80;101527.00;;;;4937901;28;87791;-65
2021/11/10 05:14:33;;;;;;;7.23;5.50;;;-0.30;99.90;-0.90;101522.00;;;;4937850;28;101529;-65
2021/11/10 05:16:59;;;;;;;5.37;4.63;;;-0.30;99.90;-0.90;101527.00;;;;4936725;28;119326;-64
2021/11/10 05:19:24;;;;;;;5.43;4.47;;;-0.50;99.90;-0.90;101519.00;;;;4937958;28;109420;-64
2021/11/10 05:21:50;;;;;;;6.80;4.90;;;-0.50;99.90;-0.90;101521.00;;;;4936834;28;108809;-65
2021/11/10 05:24:16;;;;;;;3.93;2.97;;;-0.60;99.90;-0.90;101533.00;;;;4938129;28;89416;-64
2021/11/10 05:26:42;;;;;;;5.37;4.63;;;-0.60;99.90;-0.90;101528.00;;;;4937053;28;90923;-64
2021/11/10 05:29:08;;;;;;;9.03;5.67;;;-0.50;99.90;-0.90;101513.00;;;;4938424;28;87664;-65
2021/11/10 05:31:35;;;;;;;7.07;4.37;;;-0.50;99.90;-0.90;101532.00;;;;4937310;28;109125;-64
2021/11/10 05:34:01;;;;;;;7.13;5.17;;;-0.50;99.90;-0.90;101532.00;;;;4936481;28;98033;-64
2021/11/10 05:36:27;;;;;;;8.33;5.17;;;-0.50;99.90;-0.90;101534.00;;;;4938129;28;101882;-65
2021/11/10 05:38:53;;;;;;;8.17;5.03;;;-0.50;99.90;-0.80;101542.00;;;;4937348;28;110225;-64
2021/11/10 05:41:19;;;;;;;7.30;5.07;;;-0.50;99.90;-0.80;101536.00;;;;4934174;28;87738;-64
2021/11/10 05:43:45;;;;;;;4.50;3.80;;;-0.40;99.90;-0.80;101531.00;;;;4932851;28;117922;-65
2021/11/10 05:46:11;;;;;;;5.77;5.17;;;-0.50;99.90;-0.80;101538.00;;;;4934011;28;87998;-64
2021/11/10 05:48:37;;;;;;;6.97;5.13;;;-0.40;99.90;-0.80;101536.00;;;;4934346;28;87822;-65
2021/11/10 05:51:03;;;;;;;7.40;4.93;;;-0.50;99.90;-0.80;101546.00;;;;4932926;28;89495;-64
2021/11/10 05:53:30;;;;;;;9.77;6.67;;;-0.50;99.90;-0.80;101526.00;;;;4932626;28;117346;-65
2021/11/10 05:55:57;;;;;;;8.73;5.57;;;-0.50;99.90;-0.80;101533.00;;;;4933151;28;89093;-64
2021/11/10 05:58:27;;;;;;;6.70;4.80;;;-0.50;99.90;-0.80;101540.00;;;;4933529;28;96355;-64
2021/11/10 06:00:57;;;;;;;6.00;4.87;;;-0.50;99.90;-0.90;101532.00;;;;4933939;28;88292;-65
2021/11/10 06:03:23;;;;;;;10.13;5.87;;;-0.60;99.90;-0.90;101522.00;;;;4933153;28;87945;-65
2021/11/10 06:05:53;;;;;;;6.13;5.33;;;-0.40;99.90;-0.90;101531.00;;;;4932468;28;117739;-64
2021/11/10 06:08:19;;;;;;;6.40;4.53;;;-0.50;99.90;-0.90;101524.00;;;;4934406;28;87005;-64
2021/11/10 06:10:46;;;;;;;7.23;5.57;;;-0.50;99.90;-0.90;101527.00;;;;4933466;28;87862;-64
2021/11/10 06:13:12;;;;;;;5.87;4.67;;;-0.50;99.90;-0.90;101523.00;;;;4935755;28;88090;-64
2021/11/10 06:15:38;;;;;;;6.73;4.67;;;-0.60;99.90;-0.90;101521.00;;;;4935885;28;109113;-64
2021/11/10 06:18:03;;;;;;;6.93;5.40;;;-0.50;99.90;-0.80;101521.00;;;;4936337;28;110009;-63
2021/11/10 06:20:29;;;;;;;7.70;5.50;;;-0.40;99.90;-0.80;101524.00;;;;4935035;28;104395;-63
2021/11/10 06:22:55;;;;;;;6.13;4.50;;;-0.40;99.90;-0.80;101525.00;;;;4934751;28;117646;-63
2021/11/10 06:25:21;;;;;;;10.50;5.90;;;-0.50;99.90;-0.80;101527.00;;;;4936986;28;88199;-64
2021/11/10 06:27:47;;;;;;;9.27;6.40;;;-0.50;99.90;-0.80;101529.00;;;;4936035;28;110414;-64
2021/11/10 06:30:13;;;;;;;7.43;4.77;;;-1.10;99.90;-0.70;101548.00;;;;4936991;28;97457;-65
2021/11/10 06:32:40;;;;;;;5.53;4.47;;;-0.40;99.90;-0.70;101542.00;;;;4937149;28;88038;-65
2021/11/10 06:35:07;;;;;;;8.73;5.33;;;-0.40;99.90;-0.60;101543.00;;;;4935951;28;88133;-64
2021/11/10 06:37:32;;;;;;;7.47;4.40;;;-0.30;99.90;-0.60;101536.00;;;;4936672;28;87823;-64
2021/11/10 06:39:58;;;;;;;7.80;5.07;;;-0.30;99.90;-0.50;101528.00;;;;4936478;28;88806;-65
2021/11/10 06:42:25;;;;;;;10.17;7.40;;;-0.20;99.90;-0.40;101531.00;;;;4935288;28;118405;-66
2021/11/10 06:44:51;;;;;;;9.30;7.30;;;-0.20;99.90;-0.30;101528.00;;;;4936766;28;87976;-64
2021/11/10 06:47:17;;;;;;;14.23;7.43;;;0.10;99.90;-0.30;101530.00;;;;4936725;28;87942;-65
2021/11/10 06:49:43;;;;;;;10.13;6.00;;;0.10;99.90;-0.20;101537.00;;;;4936285;28;87702;-64
2021/11/10 06:52:10;;;;;;;12.33;7.20;;;0.10;99.90;-0.10;101539.00;;;;4935797;28;105833;-64
2021/11/10 06:54:36;;;;;;;14.20;7.93;;;0.60;99.90;0.00;101552.00;;;;4936220;28;89129;-65
2021/11/10 06:57:02;;;;;;;12.13;8.20;;;0.20;99.90;0.20;101546.00;;;;4936729;28;87166;-64
2021/11/10 06:59:28;;;;;;;9.70;7.80;;;0.50;99.90;0.30;101553.00;;;;4935552;28;109885;-64
2021/11/10 07:01:53;;;;;;;17.37;8.83;;;0.50;99.90;0.50;101554.00;;;;4935541;28;117933;-65
2021/11/10 07:04:19;;;;;;;15.63;9.40;;;0.90;99.90;0.60;101556.00;;;;4934336;28;118387;-65
2021/11/10 07:06:45;;;;;;;11.87;8.60;;;0.80;99.90;0.80;101565.00;;;;4936471;28;93592;-65
2021/11/10 07:09:10;;;;;;;11.97;8.37;;;1.10;99.90;1.00;101562.00;;;;4935850;28;95996;-67
2021/11/10 07:11:37;;;;;;;15.80;9.03;;;1.30;99.90;1.20;101568.00;;;;4934492;28;117679;-64
2021/11/10 07:14:05;;;;;;;15.13;9.20;;;1.40;99.90;1.50;101579.00;;;;4936684;28;87742;-64
2021/11/10 07:16:31;;;;;;;16.83;10.20;;;1.70;99.90;1.70;101569.00;;;;4937052;28;87915;-66
2021/11/10 07:18:57;;;;;;;14.13;8.57;;;2.00;99.90;1.90;101575.00;;;;4936066;28;87892;-66
2021/11/10 07:21:22;;;;;;;11.67;7.67;;;2.10;99.90;2.10;101568.00;;;;4934735;28;117252;-66
2021/11/10 07:23:48;;;;;;;10.17;7.10;;;2.30;99.90;2.30;101556.00;;;;4934970;28;117653;-66
2021/11/10 07:26:14;;;;;;;12.07;6.70;;;2.50;99.90;2.50;101561.00;;;;4935927;28;111284;-66
2021/11/10 07:28:40;;;;;;;16.27;7.43;;;2.70;99.90;2.80;101555.00;;;;4934206;28;109690;-66
2021/11/10 07:31:06;;;;;;;13.23;7.40;;;2.90;99.90;3.00;101542.00;;;;4934509;28;116452;-65
2021/11/10 07:33:32;;;;;;;8.37;6.70;;;3.10;99.90;3.20;101559.00;;;;4934750;28;88231;-65
2021/11/10 07:35:58;;;;;;;10.40;7.57;;;3.40;99.90;3.30;101552.00;;;;4935411;28;87585;-65
2021/11/10 07:38:25;;;;;;;18.47;7.20;;;3.40;99.90;3.40;101556.00;;;;4936146;28;87889;-65
2021/11/10 07:40:55;;;;;;;17.43;8.77;;;3.60;99.90;3.40;101543.00;;;;4935673;28;88084;-64
2021/11/10 07:43:23;;;;;;;14.63;7.70;;;4.10;99.90;3.50;101544.00;;;;4935924;28;88484;-67
2021/11/10 07:45:57;;;;;;;11.07;7.40;;;4.50;99.90;3.60;101549.00;;;;4950689;28;87276;-64
2021/11/10 07:48:23;;;;;;;13.60;7.07;;;4.30;99.90;3.60;101561.00;;;;4935752;28;87737;-64
2021/11/10 07:50:49;;;;;;;13.60;8.37;;;3.80;99.90;3.70;101560.00;;;;4949615;28;100931;-64
2021/11/10 07:53:15;;;;;;;13.10;8.00;;;3.90;99.90;3.80;101559.00;;;;4934368;28;99114;-64
2021/11/10 07:55:41;;;;;;;22.70;9.10;;;4.00;99.90;3.90;101559.00;;;;4935320;28;88288;-64
2021/11/10 07:58:08;;;;;;;9.10;7.50;;;4.10;99.90;4.00;101562.00;;;;4935031;28;96385;-64
2021/11/10 08:00:37;;;;;;;12.10;7.50;;;4.20;99.90;4.20;101560.00;;;;4935968;28;87992;-64
2021/11/10 08:03:04;;;;;;;13.07;8.67;;;4.80;99.90;4.40;101569.00;;;;4935263;28;88203;-65
2021/11/10 08:05:29;;;;;;;14.17;7.20;;;5.10;99.90;4.60;101570.00;;;;4935871;28;87714;-64
2021/11/10 08:07:55;;;;;;;13.80;8.03;;;4.70;99.90;4.90;101568.00;;;;4934898;28;107240;-65
2021/11/10 08:10:21;;;;;;;12.50;7.60;;;6.60;99.90;5.20;101565.00;;;;4923820;28;117407;-64
2021/11/10 08:12:47;;;;;;;10.67;7.53;;;5.20;99.90;5.50;101565.00;;;;4923728;28;88188;-64
2021/11/10 08:15:15;;;;;;;11.83;8.07;;;5.50;99.90;5.70;101562.00;;;;4935579;28;87809;-64
2021/11/10 08:17:41;;;;;;;12.87;6.20;;;5.80;99.90;5.90;101569.00;;;;4935478;28;89083;-65
2021/11/10 08:20:14;;;;;;;13.37;5.90;;;5.90;99.90;6.00;101572.00;;;;4935993;28;88136;-65
2021/11/10 08:22:41;;;;;;;7.07;6.13;;;6.10;99.90;6.10;101568.00;;;;4935542;28;88800;-65
2021/11/10 08:25:08;;;;;;;9.17;6.77;;;6.30;99.90;6.30;101564.00;;;;4935222;28;87867;-65
2021/11/10 08:27:35;;;;;;;11.83;8.60;;;6.40;99.90;6.40;101571.00;;;;4935476;28;88822;-65
2021/11/10 08:30:04;;;;;;;11.70;8.67;;;6.50;99.90;6.50;101572.00;;;;4935051;28;88632;-66
2021/11/10 08:32:30;;;;;;;10.73;8.20;;;6.50;99.90;6.60;101566.00;;;;4935534;28;88883;-66
2021/11/10 08:34:57;;;;;;;11.23;8.07;;;6.70;99.90;6.70;101562.00;;;;4935240;28;86985;-66
2021/11/10 08:37:22;;;;;;;12.27;6.00;;;6.80;99.90;6.80;101569.00;;;;4935689;28;88355;-66
2021/11/10 08:39:48;;;;;;;10.20;6.67;;;6.90;99.90;6.90;101563.00;;;;4933767;28;105160;-65
2021/11/10 08:42:14;;;;;;;15.10;8.40;;;7.00;99.90;6.90;101565.00;;;;4933620;28;110475;-65
2021/11/10 08:44:46;;;;;;;15.90;9.30;;;7.00;99.90;6.90;101571.00;;;;4934541;28;104613;-66
2021/11/10 08:47:13;;;;;;;11.43;8.50;;;7.10;99.90;7.00;101561.00;;;;4938444;28;87717;-66
2021/11/10 08:49:39;;;;;;;12.57;6.53;;;7.20;99.90;7.10;101561.00;;;;4952699;28;88959;-66
2021/11/10 08:52:05;;;;;;;13.60;7.83;;;7.20;99.90;7.20;101566.00;;;;4937255;28;118541;-65
2021/11/10 08:54:32;;;;;;;13.07;7.80;;;7.30;99.90;7.40;101568.00;;;;4937927;28;93306;-65
2021/11/10 08:56:59;;;;;;;10.00;7.40;;;7.40;99.90;7.70;101563.00;;;;4938196;28;87994;-64
2021/11/10 08:59:27;;;;;;;14.83;7.73;;;7.60;99.90;8.00;101569.00;;;;4938910;28;87501;-65
2021/11/10 09:01:54;;;;;;;10.57;6.83;;;7.90;99.90;8.30;101554.00;;;;4938179;28;103043;-64
2021/11/10 09:04:21;;;;;;;11.23;7.47;;;8.20;99.90;8.50;101559.00;;;;4938243;28;87697;-63
2021/11/10 09:06:48;;;;;;;12.30;7.70;;;8.50;99.90;8.70;101567.00;;;;4938201;28;88688;-64
2021/11/10 09:09:16;;;;;;;9.63;6.80;;;8.70;99.90;8.80;101557.00;;;;4937080;28;118527;-64
2021/11/10 09:11:48;;;;;;;9.20;6.37;;;8.80;99.90;8.80;101562.00;;;;4937985;28;107279;-64
2021/11/10 09:14:14;;;;;;;8.70;6.13;;;8.90;99.90;8.80;101549.00;;;;4938436;28;87862;-65
2021/11/10 09:16:40;;;;;;;10.40;5.90;;;8.90;99.90;8.80;101553.00;;;;4938369;28;98851;-65
2021/11/10 09:19:06;;;;;;;10.63;5.53;;;8.90;99.90;8.90;101538.00;;;;4937376;28;118004;-65
2021/11/10 09:21:32;;;;;;;10.40;6.40;;;8.90;99.90;9.00;101544.00;;;;4952492;28;87812;-64
2021/11/10 09:23:58;;;;;;;8.53;5.73;;;9.10;99.90;9.20;101543.00;;;;4938628;28;86959;-64
2021/11/10 09:26:24;;;;;;;9.43;5.90;;;9.20;99.90;9.20;101548.00;;;;4937383;28;108348;-64
2021/11/10 09:28:50;;;;;;;8.17;6.07;;;9.20;99.90;9.30;101544.00;;;;4936858;28;118214;-64
2021/11/10 09:31:16;;;;;;;8.17;5.67;;;9.30;99.90;9.20;101549.00;;;;4937917;28;89147;-66
2021/11/10 09:33:44;;;;;;;8.70;5.50;;;9.30;99.90;9.30;101550.00;;;;4936747;28;112003;-65
2021/11/10 09:36:11;;;;;;;7.87;5.27;;;9.50;99.90;9.30;101551.00;;;;4938046;28;87950;-65
2021/11/10 09:38:37;;;;;;;10.23;5.47;;;9.30;99.90;9.40;101545.00;;;;4937676;28;88036;-65
2021/11/10 09:41:07;;;;;;;10.50;5.27;;;9.40;99.90;9.40;101534.00;;;;4937469;28;88664;-65
2021/11/10 09:43:38;;;;;;;8.43;5.50;;;9.40;99.90;9.30;101538.00;;;;4937780;28;87680;-65
2021/11/10 09:46:06;;;;;;;8.00;5.37;;;9.40;99.90;9.30;101536.00;;;;4937518;28;87693;-65
2021/11/10 09:48:32;;;;;;;10.60;6.30;;;9.30;99.90;9.20;101532.00;;;;4936226;28;87193;-65
2021/11/10 09:50:59;;;;;;;8.20;5.03;;;9.30;99.90;9.30;101532.00;;;;4936734;28;98531;-65
2021/11/10 09:53:24;;;;;;;5.70;5.00;;;9.30;99.90;9.40;101534.00;;;;4937856;28;87830;-65
2021/11/10 09:55:51;;;;;;;8.43;4.50;;;9.40;99.90;9.40;101529.00;;;;4936256;28;96260;-64
2021/11/10 09:58:17;;;;;;;8.63;5.87;;;9.50;99.90;9.40;101528.00;;;;4937501;28;88110;-64
2021/11/10 10:00:55;;;;;;;5.63;4.83;;;9.40;99.90;9.40;101536.00;;;;4937167;28;88166;-65
2021/11/10 10:03:22;;;;;;;6.43;5.50;;;9.50;99.90;9.40;101533.00;;;;4937798;28;87808;-64
2021/11/10 10:05:51;;;;;;;8.43;5.33;;;9.40;99.90;9.50;101540.00;;;;4937120;28;87925;-64
2021/11/10 10:08:19;;;;;;;9.77;5.23;;;9.50;99.90;9.60;101537.00;;;;4936463;28;104369;-65
2021/11/10 10:10:46;;;;;;;11.73;5.57;;;9.60;99.90;9.70;101523.00;;;;4936569;28;88730;-65
2021/11/10 10:13:15;;;;;;;8.67;5.10;;;9.60;99.90;9.80;101536.00;;;;4938073;28;87158;-65
2021/11/10 10:15:43;;;;;;;7.17;5.63;;;9.80;99.90;9.90;101529.00;;;;4936956;28;87873;-65
2021/11/10 10:18:21;;;;;;;7.60;5.33;;;9.90;99.90;10.00;101536.00;;;;4937068;28;88146;-65
2021/11/10 10:21:11;;;;;;;9.87;5.90;;;10.00;99.90;10.20;101525.00;;;;4935803;28;88980;-64
2021/11/10 10:23:49;;;;;;;9.37;4.90;;;10.10;99.90;10.40;101523.00;;;;4937341;28;87872;-64
2021/11/10 10:26:21;;;;;;;7.17;5.10;;;10.30;99.90;10.70;101521.00;;;;4937043;28;87976;-64
2021/11/10 10:28:57;;;;;;;9.23;4.60;;;10.50;99.90;11.00;101519.00;;;;4937004;28;88745;-65
2021/11/10 10:31:29;;;;;;;7.37;5.50;;;10.80;99.90;11.30;101532.00;;;;4936869;28;87756;-64
2021/11/10 10:34:01;;;;;;;8.60;5.13;;;11.20;99.90;11.40;101525.00;;;;4937090;28;100945;-64
2021/11/10 10:36:30;;;;;;;9.10;5.17;;;11.30;99.90;11.60;101528.00;;;;4937044;28;87656;-65
2021/11/10 10:39:01;;;;;;;6.87;5.10;;;11.40;99.90;11.80;101519.00;;;;4937339;28;87680;-64
2021/11/10 10:41:32;;;;;;;7.07;4.37;;;11.70;99.90;12.10;101528.00;;;;4936604;28;87792;-65
2021/11/10 10:44:13;;;;;;;6.70;4.90;;;11.90;99.90;12.30;101520.00;;;;4937787;28;87776;-64
2021/11/10 10:46:44;;;;;;;10.73;5.40;;;12.10;98.70;12.40;101515.00;;;;4936323;28;88641;-65
2021/11/10 10:49:31;;;;;;;11.73;6.30;;;12.20;96.20;12.50;101507.00;;;;4936273;28;106558;-66
2021/11/10 10:52:19;;;;;;;5.03;4.50;;;11.70;95.30;12.50;101497.00;;;;4936560;28;87822;-64
2021/11/10 10:54:49;;;;;;;9.43;4.83;;;12.40;94.20;12.60;101494.00;;;;4937047;28;88092;-65